Peosta, Iowa
Current Conditions -  °F | °C
As of 4:53 AM on Monday 22 Dec 2014 (Local Time) from KDBQ Reporting Station
Haze Haze  
Wind Chill: 23°   Ceiling: 3100
Heat Index: 33°   Visibility: 4mi
Dew Point: 31°   Wind: 14mph
Humidity: 92%   Direction: 150°SSE
Pressure: 29.8"   Gusts: NA
Location:  42.45°N, 90.85°W
Report Text: KDBQ 221053Z AUTO 15012KT 4SM BR BKN031 OVC065 01/M01 A2980 RMK AO2 SNB06E17 SLP103 P0000 T00061006
Loading
Personal Weather Stations






























Interactive Weather Map New forecast layout! Learn more

10-Day Weather Forecast

Advertisements
Track Severe Weather on mobile